createdAt,value
2018-04-25T19:08:10.402Z,2.60
2018-04-25T19:10:37.930Z,2.08
2018-04-25T19:13:05.460Z,2.17
2018-04-25T19:15:32.960Z,2.60
2018-04-25T19:18:00.684Z,1.98
2018-04-25T19:20:28.343Z,2.08
2018-04-25T19:22:56.009Z,2.12
2018-04-25T19:25:23.663Z,2.50
2018-04-25T19:27:51.162Z,2.28
2018-04-25T19:30:18.681Z,2.28
2018-04-25T19:32:46.182Z,2.22
2018-04-25T19:35:13.902Z,2.15
2018-04-25T19:37:41.409Z,2.75
2018-04-25T19:40:09.411Z,2.37
2018-04-25T19:42:36.912Z,2.90
2018-04-25T19:45:04.429Z,2.22
2018-04-25T19:47:31.926Z,2.08
2018-04-25T19:49:59.688Z,2.85
2018-04-25T19:52:27.205Z,2.75
2018-04-25T19:54:54.796Z,2.87
2018-04-25T19:57:22.378Z,2.30
2018-04-25T19:59:49.864Z,2.20
2018-04-25T20:02:17.371Z,2.35
2018-04-25T20:04:44.975Z,2.58
2018-04-25T20:07:12.624Z,2.30
2018-04-25T20:09:40.148Z,2.70
2018-04-25T20:12:08.155Z,2.17
2018-04-25T20:14:35.685Z,2.20
2018-04-25T20:17:03.594Z,2.83
2018-04-25T20:19:31.129Z,2.80
2018-04-25T20:21:58.661Z,2.37
2018-04-25T20:24:26.567Z,3.22
2018-04-25T20:26:54.108Z,2.85
2018-04-25T20:29:21.768Z,2.65
2018-04-25T20:31:49.417Z,2.12
2018-04-25T20:34:16.925Z,2.40
2018-04-25T20:36:44.443Z,1.95
2018-04-25T20:39:11.941Z,1.98
2018-04-25T20:41:39.514Z,1.73
2018-04-25T20:44:07.426Z,2.30
2018-04-25T20:46:34.957Z,2.25
2018-04-25T20:49:02.457Z,3.00
2018-04-25T20:54:28.117Z,2.53
2018-04-25T20:56:56.137Z,2.58
2018-04-25T20:59:23.652Z,2.92
2018-04-25T21:01:51.232Z,2.97
2018-04-25T21:04:18.733Z,2.58
2018-04-25T21:06:46.341Z,2.67
2018-04-25T21:09:14.003Z,2.00
2018-04-25T21:11:41.534Z,2.62
2018-04-25T21:14:09.521Z,3.10
2018-04-25T21:16:37.065Z,2.05
2018-04-25T21:19:04.632Z,2.87
2018-04-25T21:21:32.293Z,2.03
2018-04-25T21:24:00.046Z,2.65
2018-04-25T21:26:27.498Z,2.55
2018-04-25T21:28:55.013Z,2.40
2018-04-25T21:31:22.744Z,2.80
2018-04-25T21:33:50.264Z,2.65
2018-04-25T21:36:17.835Z,2.70
2018-04-25T21:38:45.356Z,2.33
2018-04-25T21:41:13.349Z,2.50
2018-04-25T21:43:40.877Z,2.25
2018-04-25T21:46:08.884Z,2.45
2018-04-25T21:48:36.526Z,2.45
2018-04-25T21:51:04.201Z,2.47
2018-04-25T21:53:31.867Z,2.95
2018-04-25T21:55:59.366Z,3.03
2018-04-25T21:58:27.289Z,2.80
2018-04-25T22:00:54.828Z,3.05
2018-04-25T22:03:22.362Z,2.85
2018-04-25T22:05:49.899Z,2.70
2018-04-25T22:08:17.611Z,2.97
2018-04-25T22:10:45.113Z,3.15
2018-04-25T22:13:12.635Z,2.55
2018-04-25T22:15:40.143Z,2.95
2018-04-25T22:18:07.917Z,2.80
2018-04-25T22:20:35.422Z,2.97
2018-04-25T22:23:02.965Z,3.15
2018-04-25T22:25:30.605Z,3.05
2018-04-25T22:27:58.123Z,2.87
2018-04-25T22:30:26.015Z,3.33
2018-04-25T22:32:53.581Z,3.42
2018-04-25T22:35:21.084Z,3.97
2018-04-25T22:37:48.606Z,3.50
2018-04-25T22:40:16.117Z,3.35
2018-04-25T22:42:43.815Z,3.72
2018-04-25T22:45:11.476Z,3.45
2018-04-25T22:47:39.004Z,2.90
2018-04-25T22:50:06.513Z,3.42
2018-04-25T22:52:34.081Z,3.25
2018-04-25T22:55:01.687Z,3.25
2018-04-25T22:57:29.358Z,3.85
2018-04-25T22:59:57.005Z,4.87
2018-04-25T23:02:24.504Z,3.40
2018-04-25T23:04:52.021Z,3.70
2018-04-25T23:07:19.529Z,3.80
2018-04-25T23:09:47.217Z,3.60
2018-04-25T23:12:14.881Z,3.92
2018-04-25T23:14:42.544Z,3.67
2018-04-25T23:17:10.041Z,3.70
2018-04-25T23:19:37.561Z,3.97
2018-04-25T23:22:05.090Z,4.07
2018-04-25T23:24:32.609Z,3.72
2018-04-25T23:27:00.231Z,4.07
2018-04-25T23:29:27.754Z,3.72
2018-04-25T23:31:55.754Z,4.00
2018-04-25T23:34:23.273Z,3.85
2018-04-25T23:36:51.174Z,4.43
2018-04-25T23:39:18.731Z,4.45
2018-04-25T23:41:46.378Z,4.03
2018-04-25T23:44:13.908Z,4.28
2018-04-25T23:46:41.804Z,3.58
2018-04-25T23:49:09.307Z,4.45
2018-04-25T23:51:36.834Z,5.07
2018-04-25T23:54:04.488Z,4.40
2018-04-25T23:56:32.116Z,4.07
2018-04-25T23:58:59.843Z,3.87
